Time;durP1;ratioP1;P1;durP2;ratioP2;P2;SDS_P1;SDS_P2;PMS_P1;PMS_P2;Temp;Humidity;BMP_temperature;BMP_pressure;BME280_temperature;BME280_humidity;BME280_pressure;Samples;Min_cycle;Max_cycle;Signal;HPM_P1;HPM_P2
2021/07/15 00:02:21;;;;;;;0.98;0.82;;;;;;;21.15;38.62;99739.97;4976461;28;20067;-80
2021/07/15 00:04:48;;;;;;;3.25;0.90;;;;;;;20.91;39.92;99740.63;4968713;28;20047;-77
2021/07/15 00:07:17;;;;;;;3.38;1.25;;;;;;;20.83;40.13;99734.47;4946653;28;20498;-78
2021/07/15 00:09:44;;;;;;;1.52;1.00;;;;;;;20.71;41.03;99733.84;4952919;28;20065;-79
2021/07/15 00:12:13;;;;;;;1.98;1.02;;;;;;;20.70;41.12;99736.66;4954164;28;20058;-79
2021/07/15 00:14:41;;;;;;;1.73;1.23;;;;;;;20.70;41.13;99734.00;4950066;28;20136;-78
2021/07/15 00:17:09;;;;;;;1.73;1.00;;;;;;;20.71;40.95;99733.84;4949338;28;20135;-81
2021/07/15 00:19:36;;;;;;;3.35;1.50;;;;;;;20.81;44.05;99739.88;4949350;28;20055;-80
2021/07/15 00:22:04;;;;;;;3.22;2.25;;;;;;;20.40;45.85;99733.44;4950457;28;20127;-79
2021/07/15 00:24:31;;;;;;;2.70;2.35;;;;;;;19.83;47.46;99736.31;4947043;28;20043;-81
2021/07/15 00:26:58;;;;;;;3.70;1.55;;;;;;;19.83;47.49;99733.69;4945167;28;20066;-78
2021/07/15 00:29:25;;;;;;;5.22;1.48;;;;;;;19.71;46.94;99740.16;4951314;28;20043;-79
2021/07/15 00:31:53;;;;;;;4.65;1.63;;;;;;;19.66;47.28;99739.78;4953322;28;20102;-77
2021/07/15 00:34:23;;;;;;;2.95;1.40;;;;;;;19.54;47.98;99738.25;4929562;29;20036;-76
2021/07/15 00:36:51;;;;;;;2.88;1.83;;;;;;;19.61;47.79;99739.38;4950420;28;20178;-79
2021/07/15 00:39:28;;;;;;;4.20;1.67;;;;;;;19.49;48.10;99729.91;4932468;28;20038;-79
2021/07/15 00:42:09;;;;;;;3.05;1.73;;;;;;;19.62;47.96;99733.09;4952448;28;20047;-78
2021/07/15 00:44:36;;;;;;;2.25;1.52;;;;;;;19.51;48.10;99735.91;4953645;28;20138;-78
2021/07/15 00:47:03;;;;;;;2.03;1.50;;;;;;;19.42;47.91;99734.13;4952415;28;20422;-79
2021/07/15 00:49:30;;;;;;;3.58;1.15;;;;;;;19.38;47.78;99739.69;4952289;28;20506;-78
2021/07/15 00:51:57;;;;;;;2.53;1.80;;;;;;;19.40;47.31;99726.38;4954187;28;20495;-80
2021/07/15 00:54:24;;;;;;;1.80;1.38;;;;;;;19.38;46.93;99721.19;4952361;28;20050;-80
2021/07/15 00:56:50;;;;;;;5.45;1.20;;;;;;;19.48;46.33;99721.16;4952231;28;20040;-81
2021/07/15 00:59:20;;;;;;;3.30;1.30;;;;;;;19.37;46.76;99716.91;4948657;28;20114;-82
2021/07/15 01:01:48;;;;;;;1.48;1.10;;;;;;;19.23;46.43;99720.03;4954098;28;20114;-81
2021/07/15 01:04:15;;;;;;;1.60;0.82;;;;;;;19.19;46.76;99718.66;4951165;28;20051;-83
2021/07/15 01:06:42;;;;;;;0.88;0.70;;;;;;;19.21;46.25;99721.97;4953701;28;20058;-83
2021/07/15 01:09:09;;;;;;;1.13;0.90;;;;;;;19.19;47.09;99717.81;4950395;28;20043;-80
2021/07/15 01:11:45;;;;;;;1.13;1.02;;;;;;;19.31;46.12;99709.56;4950275;28;20442;-81
2021/07/15 01:14:23;;;;;;;1.35;1.10;;;;;;;19.69;44.70;99713.00;4950307;28;20059;-83
2021/07/15 01:16:59;;;;;;;1.60;1.20;;;;;;;19.69;43.62;99710.38;4952230;28;20055;-83
2021/07/15 01:19:44;;;;;;;3.38;1.00;;;;;;;19.68;43.60;99702.59;4951018;28;20043;-82
2021/07/15 01:22:29;;;;;;;1.77;1.27;;;;;;;19.65;43.39;99695.78;4950926;28;20122;-82
2021/07/15 01:25:29;;;;;;;2.42;1.20;;;;;;;19.96;42.58;99690.16;4955439;28;20054;-82
2021/07/15 01:28:02;;;;;;;2.65;0.90;;;;;;;19.89;42.47;99688.13;4942573;28;20051;-80
2021/07/15 01:30:49;;;;;;;3.35;1.10;;;;;;;20.01;42.17;99687.88;4954661;28;20134;-80
2021/07/15 01:33:20;;;;;;;1.77;0.70;;;;;;;20.14;41.96;99693.66;4953148;28;20051;-83
2021/07/15 01:36:02;;;;;;;3.65;1.50;;;;;;;20.08;41.80;99695.09;4953296;28;20537;-79
2021/07/15 01:38:36;;;;;;;0.90;0.80;;;;;;;20.02;42.04;99692.19;4955625;28;20047;-81
2021/07/15 01:41:24;;;;;;;2.85;1.20;;;;;;;20.01;42.65;99694.00;4952916;28;20371;-81
2021/07/15 01:43:57;;;;;;;1.30;1.20;;;;;;;20.05;42.54;99698.03;4956508;28;20438;-81
2021/07/15 01:46:24;;;;;;;3.20;0.80;;;;;;;20.05;42.25;99695.38;4956385;28;20051;-79
2021/07/15 01:48:51;;;;;;;4.97;1.95;;;;;;;19.84;42.95;99700.94;4935579;29;20067;-79
2021/07/15 01:51:19;;;;;;;2.08;0.98;;;;;;;19.71;43.01;99697.00;4952275;28;20046;-79
2021/07/15 01:53:49;;;;;;;1.40;1.30;;;;;;;19.68;43.16;99698.13;4951837;28;20046;-79
2021/07/15 01:56:17;;;;;;;1.13;0.80;;;;;;;19.71;43.38;99705.78;4946027;28;20126;-79
2021/07/15 01:58:46;;;;;;;2.17;1.02;;;;;;;19.79;43.16;99705.03;4953746;28;20043;-79
2021/07/15 02:01:13;;;;;;;4.43;1.00;;;;;;;19.66;43.25;99702.75;4956522;28;20053;-78
2021/07/15 02:03:45;;;;;;;0.98;0.90;;;;;;;19.70;43.47;99700.63;4952843;28;20078;-79
2021/07/15 02:06:13;;;;;;;1.90;0.75;;;;;;;19.64;43.48;99691.47;4950798;28;20133;-80
2021/07/15 02:08:44;;;;;;;3.70;1.08;;;;;;;19.63;43.63;99695.09;4953396;28;20047;-79
2021/07/15 02:11:13;;;;;;;1.10;0.90;;;;;;;19.50;43.95;99690.16;4947473;28;20118;-79
2021/07/15 02:13:41;;;;;;;1.35;0.95;;;;;;;19.66;43.73;99702.75;4954747;28;20147;-78
2021/07/15 02:16:09;;;;;;;2.25;1.33;;;;;;;19.69;43.91;99693.69;4955205;28;20052;-78
2021/07/15 02:18:38;;;;;;;6.63;1.40;;;;;;;19.43;45.06;99696.16;4953858;28;20628;-80
2021/07/15 02:21:06;;;;;;;2.88;1.33;;;;;;;19.27;45.34;99697.59;4950228;28;20044;-80
2021/07/15 02:23:33;;;;;;;1.10;1.00;;;;;;;19.35;45.37;99694.25;4947021;28;20047;-80
2021/07/15 02:26:01;;;;;;;2.95;1.10;;;;;;;19.43;45.15;99690.84;4952304;28;20146;-80
2021/07/15 02:28:29;;;;;;;2.05;1.10;;;;;;;19.29;45.31;99695.66;4951978;28;20048;-82
2021/07/15 02:31:05;;;;;;;5.60;1.45;;;;;;;19.30;45.62;99699.97;4951686;28;20046;-84
2021/07/15 02:33:36;;;;;;;3.00;1.00;;;;;;;19.33;45.70;99697.03;4954185;28;20050;-79
2021/07/15 02:36:05;;;;;;;2.30;1.08;;;;;;;19.25;45.69;99699.56;4958750;28;20067;-79
2021/07/15 02:38:34;;;;;;;3.00;1.58;;;;;;;19.22;45.92;99694.56;4952750;28;20043;-79
2021/07/15 02:41:01;;;;;;;2.38;1.00;;;;;;;19.23;45.97;99693.63;4949671;28;20047;-80
2021/07/15 02:43:28;;;;;;;2.05;0.90;;;;;;;19.22;46.50;99699.84;4949731;28;20154;-80
2021/07/15 02:45:55;;;;;;;6.25;1.40;;;;;;;19.28;46.42;99704.56;4955863;28;20050;-79
2021/07/15 02:48:23;;;;;;;1.15;0.95;;;;;;;19.21;46.37;99695.53;4942082;29;20047;-80
2021/07/15 02:50:51;;;;;;;2.50;1.05;;;;;;;19.13;46.92;99700.75;4971941;28;20113;-79
2021/07/15 02:53:19;;;;;;;4.97;1.15;;;;;;;19.22;46.31;99701.66;4965816;28;20132;-80
2021/07/15 02:56:06;;;;;;;2.72;1.02;;;;;;;19.04;47.28;99697.16;4954654;29;20091;-80
2021/07/15 02:58:38;;;;;;;1.83;1.20;;;;;;;19.09;47.26;99697.53;4970941;28;20047;-78
2021/07/15 03:01:10;;;;;;;1.17;1.00;;;;;;;18.93;47.39;99701.78;4973726;28;20054;-77
2021/07/15 03:03:57;;;;;;;3.60;1.42;;;;;;;18.88;47.94;99706.66;4955921;28;20441;-78
2021/07/15 03:06:31;;;;;;;0.93;0.75;;;;;;;18.55;50.11;99699.03;4957444;28;20047;-77
2021/07/15 03:08:59;;;;;;;;;;;;;;;18.57;50.27;99706.81;4965676;28;20043;-78
2021/07/15 03:11:36;;;;;;;1.55;1.00;;;;;;;18.50;49.75;99698.63;4972759;28;19922;-77
2021/07/15 03:14:05;;;;;;;2.03;1.00;;;;;;;18.61;49.97;99699.44;4973063;28;20054;-78
2021/07/15 03:16:34;;;;;;;1.98;1.13;;;;;;;18.49;50.16;99701.41;4961886;28;20053;-77
2021/07/15 03:19:03;;;;;;;3.20;1.10;;;;;;;18.32;50.48;99709.06;4959062;28;20495;-78
2021/07/15 03:21:32;;;;;;;3.13;1.33;;;;;;;18.53;49.47;99700.97;4972950;28;20047;-78
2021/07/15 03:24:01;;;;;;;3.38;1.30;;;;;;;18.47;49.82;99701.53;4975634;28;20471;-77
2021/07/15 03:26:30;;;;;;;5.55;1.23;;;;;;;18.44;49.68;99706.28;4959427;28;20103;-77
2021/07/15 03:28:59;;;;;;;3.85;1.48;;;;;;;18.26;50.74;99704.31;4976823;28;20042;-77
2021/07/15 03:31:28;;;;;;;4.28;1.15;;;;;;;18.35;50.22;99705.28;4976795;28;20043;-79
2021/07/15 03:33:55;;;;;;;1.35;1.10;;;;;;;18.24;50.40;99706.28;4976219;28;20050;-78
2021/07/15 03:36:24;;;;;;;1.70;1.52;;;;;;;18.50;49.47;99695.97;4972762;28;20447;-79
2021/07/15 03:38:52;;;;;;;3.00;1.25;;;;;;;18.15;50.78;99696.53;4956855;28;20126;-80
2021/07/15 03:41:21;;;;;;;3.03;1.25;;;;;;;18.23;50.85;99688.78;4957117;29;20047;-79
2021/07/15 03:43:48;;;;;;;2.10;1.20;;;;;;;18.26;50.63;99704.31;4958244;28;20051;-79
2021/07/15 03:46:17;;;;;;;1.38;1.00;;;;;;;18.38;50.12;99689.19;4976128;28;20074;-79
2021/07/15 03:48:46;;;;;;;2.95;0.93;;;;;;;18.48;50.00;99697.09;4960867;28;20494;-79
2021/07/15 03:51:14;;;;;;;2.35;1.52;;;;;;;18.40;50.49;99700.44;4968261;28;20050;-80
2021/07/15 03:53:44;;;;;;;4.30;1.15;;;;;;;18.38;50.72;99705.03;4969102;28;20454;-78
2021/07/15 03:56:14;;;;;;;2.20;1.00;;;;;;;18.52;49.85;99714.31;4970361;28;20045;-79
2021/07/15 03:58:44;;;;;;;7.28;1.48;;;;;;;18.63;49.76;99715.97;4976225;28;20042;-76
2021/07/15 04:01:12;;;;;;;2.80;1.40;;;;;;;18.26;51.06;99725.41;4976384;28;20122;-75
2021/07/15 04:03:42;;;;;;;2.55;1.35;;;;;;;18.46;50.33;99723.63;4976253;28;20049;-76
2021/07/15 04:06:11;;;;;;;6.43;1.10;;;;;;;18.59;50.24;99720.72;4959805;28;20065;-75
2021/07/15 04:08:42;;;;;;;3.20;1.40;;;;;;;18.56;49.83;99716.53;4957516;29;20078;-76
2021/07/15 04:11:13;;;;;;;4.80;1.27;;;;;;;18.82;49.59;99719.44;4975214;28;20130;-76
2021/07/15 04:13:43;;;;;;;1.65;1.30;;;;;;;18.57;51.23;99722.63;4989374;23;20049;-83
2021/07/15 04:16:10;;;;;;;2.60;1.05;;;;;;;18.60;50.58;99725.00;4958426;28;20050;-80
2021/07/15 04:18:39;;;;;;;2.05;1.00;;;;;;;18.67;50.21;99726.09;4991737;28;20121;-82
2021/07/15 04:21:07;;;;;;;2.47;1.30;;;;;;;18.79;50.65;99721.53;4977294;28;20105;-80
2021/07/15 04:23:36;;;;;;;2.10;1.25;;;;;;;18.37;52.38;99731.53;4995507;28;20046;-82
2021/07/15 04:26:05;;;;;;;4.70;1.45;;;;;;;18.59;51.69;99732.09;4994968;28;20537;-82
2021/07/15 04:28:31;;;;;;;3.03;1.40;;;;;;;18.92;50.37;99726.53;4981690;28;20465;-82
2021/07/15 04:31:21;;;;;;;6.38;1.27;;;;;;;19.12;49.59;99730.75;4975649;28;20042;-82
2021/07/15 04:33:50;;;;;;;3.40;1.65;;;;;;;19.49;48.91;99724.63;4976741;28;20049;-82
2021/07/15 04:36:17;;;;;;;2.15;1.30;;;;;;;19.39;49.96;99727.34;4969657;28;20050;-83
2021/07/15 04:38:44;;;;;;;3.22;1.42;;;;;;;19.51;49.85;99725.34;4958477;28;20101;-83
2021/07/15 04:41:11;;;;;;;3.75;1.38;;;;;;;19.95;48.01;99723.72;4979535;28;20070;-82
2021/07/15 04:43:40;;;;;;;3.88;1.40;;;;;;;19.93;48.74;99722.22;4975349;28;20054;-83
2021/07/15 04:46:10;;;;;;;1.98;0.90;;;;;;;20.26;48.38;99729.47;4985706;28;20619;-84
2021/07/15 04:48:37;;;;;;;5.00;1.55;;;;;;;20.67;47.29;99717.47;4959146;28;20046;-84
2021/07/15 04:51:06;;;;;;;8.82;1.52;;;;;;;20.88;46.32;99724.22;4975644;28;20045;-81
2021/07/15 04:53:33;;;;;;;4.38;1.45;;;;;;;21.66;44.79;99734.75;4967187;28;20121;-81
2021/07/15 04:56:00;;;;;;;4.60;1.45;;;;;;;21.71;43.81;99729.78;4994878;28;20077;-80
2021/07/15 04:58:27;;;;;;;7.38;1.73;;;;;;;21.01;45.85;99724.63;4978034;28;20401;-83
2021/07/15 05:00:54;;;;;;;2.05;1.65;;;;;;;21.39;45.36;99723.38;4974952;28;20094;-83
2021/07/15 05:03:22;;;;;;;2.63;1.58;;;;;;;21.72;45.02;99734.09;4957386;28;20047;-83
2021/07/15 05:05:48;;;;;;;2.75;1.60;;;;;;;21.93;44.63;99728.38;4980104;28;20078;-83
2021/07/15 05:08:15;;;;;;;6.15;1.40;;;;;;;21.48;44.58;99736.69;4975470;28;20437;-84
2021/07/15 05:10:42;;;;;;;3.25;1.45;;;;;;;21.87;42.68;99726.38;4974755;28;20129;-84
2021/07/15 05:13:10;;;;;;;6.43;1.40;;;;;;;22.02;42.15;99729.22;4981172;28;20417;-83
2021/07/15 05:15:38;;;;;;;2.65;1.35;;;;;;;22.45;41.41;99736.13;4980807;28;20575;-80
2021/07/15 05:18:05;;;;;;;7.53;1.13;;;;;;;22.74;40.88;99733.78;4990195;28;20074;-79
2021/07/15 05:20:32;;;;;;;8.18;1.60;;;;;;;23.05;40.70;99733.09;4987641;28;20508;-79
2021/07/15 05:22:59;;;;;;;10.75;1.48;;;;;;;23.21;39.67;99735.72;4963162;28;20543;-80
2021/07/15 05:25:26;;;;;;;4.25;1.30;;;;;;;22.89;40.19;99739.25;4978769;28;20038;-83
2021/07/15 05:27:53;;;;;;;4.95;1.52;;;;;;;23.13;41.79;99745.56;4974044;28;20517;-83
2021/07/15 05:30:21;;;;;;;3.97;1.17;;;;;;;23.40;41.38;99747.81;4974211;28;20046;-84
2021/07/15 05:32:48;;;;;;;5.18;1.35;;;;;;;23.81;40.42;99749.47;4982205;28;20500;-83
2021/07/15 05:35:15;;;;;;;3.90;1.15;;;;;;;23.68;40.21;99747.38;4982233;28;20458;-80
2021/07/15 05:37:42;;;;;;;5.88;1.90;;;;;;;23.52;40.19;99743.75;4967984;28;20161;-82
2021/07/15 05:40:10;;;;;;;4.47;1.58;;;;;;;23.60;38.72;99748.25;4973856;28;20049;-83
2021/07/15 05:42:37;;;;;;;2.28;1.20;;;;;;;23.47;39.83;99748.75;4975716;28;20113;-84
2021/07/15 05:45:07;;;;;;;3.72;1.33;;;;;;;23.44;40.66;99742.97;4983701;28;20090;-82
2021/07/15 05:47:34;;;;;;;7.97;2.33;;;;;;;23.63;40.45;99749.75;4983315;28;20047;-83
2021/07/15 05:50:01;;;;;;;4.20;1.20;;;;;;;23.76;39.72;99747.38;4974367;28;20074;-84
2021/07/15 05:52:28;;;;;;;3.58;1.27;;;;;;;24.11;39.51;99753.97;4973331;28;20165;-83
2021/07/15 05:54:57;;;;;;;1.80;1.00;;;;;;;24.16;39.28;99756.13;4989034;28;20129;-85
2021/07/15 05:57:25;;;;;;;3.30;1.00;;;;;;;23.92;37.65;99752.59;4986999;28;20066;-84
2021/07/15 05:59:52;;;;;;;5.43;1.38;;;;;;;24.30;36.96;99758.84;4984128;28;20045;-84
2021/07/15 06:02:19;;;;;;;1.95;1.10;;;;;;;24.29;37.25;99759.03;4977958;28;20544;-83
2021/07/15 06:04:47;;;;;;;2.85;1.10;;;;;;;24.46;36.41;99765.09;4974265;28;20050;-82
2021/07/15 06:07:14;;;;;;;11.05;1.10;;;;;;;24.18;37.52;99757.63;4988198;28;20039;-83
2021/07/15 06:09:42;;;;;;;5.47;1.00;;;;;;;24.41;36.65;99762.16;4990214;28;20441;-84
2021/07/15 06:12:10;;;;;;;3.10;1.30;;;;;;;24.54;36.21;99752.53;4995351;28;20074;-84
2021/07/15 06:14:36;;;;;;;1.77;0.90;;;;;;;24.49;36.37;99754.06;4990833;28;20141;-85
2021/07/15 06:17:04;;;;;;;4.05;1.63;;;;;;;24.67;36.40;99761.78;4990563;28;20121;-86
2021/07/15 06:19:31;;;;;;;3.03;1.05;;;;;;;24.18;37.63;99765.59;4997227;28;20041;-89
2021/07/15 06:21:58;;;;;;;2.97;1.20;;;;;;;24.26;37.94;99759.38;5003040;28;20050;-86
2021/07/15 06:24:26;;;;;;;4.47;1.20;;;;;;;24.40;37.85;99761.31;4985961;28;20130;-86
2021/07/15 06:26:53;;;;;;;1.90;1.02;;;;;;;24.21;38.62;99759.09;4983757;28;20045;-90
2021/07/15 06:29:20;;;;;;;1.98;1.08;;;;;;;23.81;38.68;99758.31;4991481;28;20066;-87
2021/07/15 06:31:47;;;;;;;4.38;1.58;;;;;;;24.23;37.92;99759.72;4990749;28;20049;-83
2021/07/15 06:34:14;;;;;;;6.10;1.75;;;;;;;24.45;37.29;99764.28;4989133;28;20043;-83
2021/07/15 06:36:45;;;;;;;9.85;1.80;;;;;;;24.68;36.78;99752.78;4989432;28;20046;-85
2021/07/15 06:39:14;;;;;;;3.00;1.10;;;;;;;24.60;37.08;99756.31;4986973;28;20077;-87
2021/07/15 06:41:40;;;;;;;3.15;1.45;;;;;;;24.69;36.29;99763.25;4989674;28;20042;-83
2021/07/15 06:44:09;;;;;;;2.70;0.70;;;;;;;23.96;36.80;99758.38;4989972;28;20143;-89
2021/07/15 06:46:39;;;;;;;1.70;1.10;;;;;;;24.15;35.79;99762.44;4989458;28;20065;-91
2021/07/15 06:49:06;;;;;;;6.28;1.27;;;;;;;24.05;35.80;99760.84;4992511;28;20046;-88
2021/07/15 06:51:33;;;;;;;3.53;1.30;;;;;;;24.27;36.02;99758.38;4989548;28;20128;-93
2021/07/15 06:54:01;;;;;;;3.03;0.90;;;;;;;24.32;36.27;99761.34;4987323;28;20058;-93
2021/07/15 06:56:28;;;;;;;2.42;1.60;;;;;;;23.99;36.49;99752.72;4984768;28;20481;-93
2021/07/15 06:58:54;;;;;;;4.10;0.98;;;;;;;23.93;37.05;99748.09;4991600;28;20119;-93
2021/07/15 07:01:21;;;;;;;2.95;1.58;;;;;;;24.37;36.51;99756.34;4995440;28;20070;-91
2021/07/15 07:03:51;;;;;;;1.98;1.08;;;;;;;23.99;37.44;99750.88;4992746;28;20409;-92
2021/07/15 07:06:20;;;;;;;3.00;1.30;;;;;;;24.28;36.20;99752.03;4995127;28;20129;-89
2021/07/15 07:08:51;;;;;;;5.93;1.73;;;;;;;24.12;36.30;99746.81;4999467;28;20047;-91
2021/07/15 07:11:18;;;;;;;3.05;1.20;;;;;;;24.32;36.09;99748.00;4976908;28;20053;-89
2021/07/15 07:13:47;;;;;;;3.38;1.30;;;;;;;24.41;36.40;99756.81;4996584;28;20081;-90
2021/07/15 07:16:14;;;;;;;2.92;1.00;;;;;;;24.33;37.10;99755.00;4974434;28;20188;-89
2021/07/15 07:18:41;;;;;;;2.58;1.08;;;;;;;24.36;36.95;99749.34;4975148;28;20077;-90
2021/07/15 07:21:08;;;;;;;8.90;2.08;;;;;;;24.50;36.93;99745.94;4996601;28;20042;-92
2021/07/15 07:23:35;;;;;;;2.80;1.55;;;;;;;23.81;38.21;99750.34;4992140;28;20049;-93
2021/07/15 07:26:02;;;;;;;4.25;1.50;;;;;;;24.05;37.70;99752.03;4990923;28;20397;-90
2021/07/15 07:28:29;;;;;;;5.15;1.40;;;;;;;24.30;37.33;99750.03;4991521;28;20053;-90
2021/07/15 07:30:56;;;;;;;2.35;1.33;;;;;;;24.31;37.14;99755.19;4974653;28;20065;-95
2021/07/15 07:33:24;;;;;;;4.45;1.15;;;;;;;24.33;36.80;99755.00;4993411;28;20054;-86
2021/07/15 07:35:51;;;;;;;1.63;1.13;;;;;;;23.92;37.62;99747.28;4988877;28;20060;-89
2021/07/15 07:38:18;;;;;;;1.90;1.02;;;;;;;24.33;37.54;99757.66;4986473;28;20046;-93
2021/07/15 07:40:44;;;;;;;8.15;2.55;;;;;;;24.65;37.04;99759.28;4988229;28;20146;-85
2021/07/15 07:43:11;;;;;;;3.08;1.10;;;;;;;24.73;36.76;99766.38;4988898;28;20145;-83
2021/07/15 07:45:38;;;;;;;6.68;1.35;;;;;;;24.47;37.41;99762.25;4985963;28;20057;-89
2021/07/15 07:48:06;;;;;;;5.90;1.35;;;;;;;24.05;38.36;99755.50;4990851;28;20068;-84
2021/07/15 07:50:33;;;;;;;4.78;1.20;;;;;;;24.69;37.59;99757.09;5000178;28;20051;-95
2021/07/15 07:53:00;;;;;;;2.58;1.10;;;;;;;24.36;38.07;99757.34;4991358;28;20086;-85
2021/07/15 07:55:28;;;;;;;3.55;1.33;;;;;;;24.41;37.67;99759.47;4989984;28;20061;-92
2021/07/15 07:57:55;;;;;;;1.98;1.20;;;;;;;24.46;38.14;99765.09;4987658;28;20042;-84
2021/07/15 08:00:22;;;;;;;6.25;1.33;;;;;;;24.21;38.50;99764.41;4992523;28;20034;-86
2021/07/15 08:02:52;;;;;;;1.63;1.02;;;;;;;24.39;38.13;99759.63;4991703;28;20081;-87
2021/07/15 08:05:22;;;;;;;4.47;1.17;;;;;;;24.62;38.43;99756.16;4990442;28;20042;-91
2021/07/15 08:07:51;;;;;;;2.28;1.20;;;;;;;24.37;38.48;99744.84;4987839;28;20043;-90
2021/07/15 08:10:19;;;;;;;2.10;1.75;;;;;;;24.26;39.32;99743.41;4990277;28;20053;-88
2021/07/15 08:12:50;;;;;;;5.07;1.20;;;;;;;24.37;38.58;99761.66;4992615;28;20039;-88
2021/07/15 08:15:17;;;;;;;2.85;1.10;;;;;;;24.25;39.44;99753.22;4987693;28;20054;-87
2021/07/15 08:17:45;;;;;;;6.43;2.00;;;;;;;24.37;39.13;99755.50;4987000;28;20049;-88
2021/07/15 08:20:12;;;;;;;3.47;1.33;;;;;;;23.89;39.72;99752.13;4991051;28;20038;-88
2021/07/15 08:22:42;;;;;;;3.58;2.55;;;;;;;24.15;39.86;99762.44;4989759;28;20125;-86
2021/07/15 08:25:10;;;;;;;3.45;1.48;;;;;;;24.04;40.77;99756.53;4989026;28;20148;-83
2021/07/15 08:27:37;;;;;;;1.67;1.40;;;;;;;24.17;40.71;99758.59;4984742;28;20122;-85
2021/07/15 08:30:07;;;;;;;7.22;1.42;;;;;;;24.35;41.52;99760.16;4989794;28;20054;-84
2021/07/15 08:32:35;;;;;;;5.38;2.00;;;;;;;24.29;41.91;99759.03;4990246;28;20041;-85
2021/07/15 08:35:23;;;;;;;3.58;2.15;;;;;;;23.99;42.79;99764.19;4991790;28;20038;-87
2021/07/15 08:38:09;;;;;;;6.55;1.55;;;;;;;24.33;42.35;99770.16;4990502;28;20048;-86
2021/07/15 08:40:36;;;;;;;4.03;1.92;;;;;;;24.35;42.83;99766.34;4991297;28;20046;-87
2021/07/15 08:43:03;;;;;;;8.13;1.85;;;;;;;24.41;42.13;99767.47;4992504;28;20489;-87
2021/07/15 08:45:35;;;;;;;9.80;2.08;;;;;;;24.40;43.19;99757.84;4991449;28;20050;-87
2021/07/15 08:48:07;;;;;;;5.30;2.58;;;;;;;24.12;43.70;99778.78;4993532;28;20097;-86
2021/07/15 08:50:34;;;;;;;4.38;1.80;;;;;;;23.85;43.92;99774.75;4974056;28;20089;-86
2021/07/15 08:53:01;;;;;;;5.60;1.58;;;;;;;24.10;43.25;99778.13;4988318;28;20051;-85
2021/07/15 08:58:16;;;;;;;4.78;1.75;;;;;;;24.27;44.19;99782.34;4989987;28;20069;-89
2021/07/15 09:00:45;;;;;;;5.40;2.13;;;;;;;24.11;44.57;99787.75;4992751;28;20481;-88
2021/07/15 09:03:13;;;;;;;4.22;2.72;;;;;;;23.89;44.50;99778.72;4974526;28;20046;-89
2021/07/15 09:05:43;;;;;;;7.45;2.13;;;;;;;24.14;44.59;99787.44;4992829;28;20102;-89
2021/07/15 09:08:12;;;;;;;8.35;2.35;;;;;;;24.21;44.07;99793.69;4991853;28;20097;-90
2021/07/15 09:10:40;;;;;;;7.50;1.65;;;;;;;24.33;44.16;99792.28;4989361;28;20047;-88
2021/07/15 09:13:07;;;;;;;9.80;3.00;;;;;;;24.50;43.59;99799.22;4992555;28;20121;-89
2021/07/15 09:15:36;;;;;;;4.07;1.77;;;;;;;24.03;43.66;99788.66;4992123;28;20047;-88
2021/07/15 09:18:13;;;;;;;7.65;2.30;;;;;;;24.38;43.62;99795.28;4991963;28;20053;-94
2021/07/15 09:20:40;;;;;;;4.97;2.42;;;;;;;24.44;43.98;99799.06;4959008;28;20449;-91
2021/07/15 09:23:12;;;;;;;5.10;1.80;;;;;;;24.23;43.53;99794.34;4995009;28;20133;-93
2021/07/15 09:25:39;;;;;;;6.43;2.47;;;;;;;24.23;44.18;99797.84;4988441;28;20046;-90
2021/07/15 09:28:12;;;;;;;6.10;2.25;;;;;;;23.85;44.63;99796.03;4989089;28;20046;-93
2021/07/15 09:30:41;;;;;;;7.40;2.17;;;;;;;23.83;45.18;99798.06;4991437;28;20532;-89
2021/07/15 09:33:13;;;;;;;3.75;2.00;;;;;;;24.05;44.68;99790.13;4989575;28;20048;-85
2021/07/15 09:35:43;;;;;;;7.03;2.53;;;;;;;23.92;45.11;99795.19;4990158;28;20425;-84
2021/07/15 09:38:24;;;;;;;2.60;1.60;;;;;;;23.85;45.10;99796.03;4971130;28;20493;-83
2021/07/15 09:40:59;;;;;;;6.20;2.08;;;;;;;24.26;44.41;99791.34;4988230;28;20050;-84
2021/07/15 09:43:33;;;;;;;9.48;2.55;;;;;;;24.35;43.95;99781.47;4986480;28;20042;-84
2021/07/15 09:46:15;;;;;;;8.77;2.67;;;;;;;24.45;43.60;99774.94;4990580;28;20061;-85
2021/07/15 09:48:45;;;;;;;7.95;2.85;;;;;;;23.77;45.02;99781.78;4988571;28;20039;-81
2021/07/15 09:51:14;;;;;;;12.02;3.05;;;;;;;23.78;45.21;99782.59;4984287;28;20062;-83
2021/07/15 09:53:41;;;;;;;8.68;2.40;;;;;;;23.70;45.20;99790.59;4986921;28;20092;-87
2021/07/15 09:56:17;;;;;;;5.78;2.00;;;;;;;24.00;44.87;99792.47;4988089;28;20140;-82
2021/07/15 09:58:47;;;;;;;6.57;2.40;;;;;;;24.29;44.32;99788.34;4984170;28;20042;-83
2021/07/15 10:01:18;;;;;;;5.45;2.53;;;;;;;24.44;43.95;99783.91;4983596;28;20449;-89
2021/07/15 10:03:47;;;;;;;4.00;2.13;;;;;;;24.15;44.48;99786.41;4985981;28;21058;-89
2021/07/15 10:06:17;;;;;;;7.60;2.85;;;;;;;24.50;43.94;99785.91;4988971;28;20047;-89
2021/07/15 10:08:46;;;;;;;6.85;2.53;;;;;;;24.69;44.00;99791.75;4972120;28;20048;-92
2021/07/15 10:11:29;;;;;;;4.07;2.50;;;;;;;24.72;43.39;99796.72;4986940;28;20446;-88
2021/07/15 10:14:03;;;;;;;8.85;2.25;;;;;;;24.57;44.15;99799.31;4990063;28;20047;-90
2021/07/15 10:16:32;;;;;;;5.28;2.83;;;;;;;24.34;44.37;99798.44;4985960;28;20154;-89
2021/07/15 10:19:01;;;;;;;7.30;2.50;;;;;;;24.41;44.07;99805.59;4991847;28;20038;-91
2021/07/15 10:21:30;;;;;;;5.05;3.63;;;;;;;24.24;45.38;99793.38;4991676;28;20050;-92
2021/07/15 10:23:59;;;;;;;8.63;3.25;;;;;;;24.37;44.85;99801.63;4989690;28;20054;-91
2021/07/15 10:26:28;;;;;;;5.07;2.90;;;;;;;24.71;44.06;99798.53;4978021;28;20049;-93
2021/07/15 10:28:56;;;;;;;6.32;2.53;;;;;;;24.82;43.90;99805.28;4993209;28;20046;-82
2021/07/15 10:31:24;;;;;;;5.10;2.30;;;;;;;24.40;44.57;99803.94;4988622;28;20034;-84
2021/07/15 10:33:52;;;;;;;6.70;2.17;;;;;;;24.55;44.34;99802.19;4988448;28;20042;-86
2021/07/15 10:36:20;;;;;;;6.38;3.05;;;;;;;24.38;45.29;99789.97;4990246;28;20042;-85
2021/07/15 10:38:52;;;;;;;3.15;2.30;;;;;;;24.67;44.90;99793.75;4972526;28;20054;-87
2021/07/15 10:41:22;;;;;;;5.80;2.70;;;;;;;24.49;44.91;99791.38;4989313;28;20118;-86
2021/07/15 10:43:51;;;;;;;6.80;2.80;;;;;;;24.64;44.82;99794.94;4988025;28;20105;-87
2021/07/15 10:46:18;;;;;;;8.45;3.13;;;;;;;24.53;45.11;99790.84;4986940;28;20046;-87
2021/07/15 10:48:47;;;;;;;3.55;3.05;;;;;;;24.58;45.31;99800.16;4990629;28;20405;-84
2021/07/15 10:51:15;;;;;;;6.60;2.78;;;;;;;24.69;45.08;99807.72;4978925;28;20046;-91
2021/07/15 10:53:43;;;;;;;4.57;2.67;;;;;;;24.74;45.56;99811.50;4990504;28;20121;-87
2021/07/15 10:56:15;;;;;;;34.92;3.65;;;;;;;24.72;45.81;99812.72;4990275;28;20049;-85
2021/07/15 10:58:48;;;;;;;9.32;2.55;;;;;;;24.51;46.17;99798.19;4991503;28;20049;-84
2021/07/15 11:01:40;;;;;;;7.30;2.78;;;;;;;24.96;45.54;99809.81;4988353;28;20043;-87
2021/07/15 11:04:16;;;;;;;13.05;3.75;;;;;;;24.76;45.61;99821.97;4988410;28;20069;-87
2021/07/15 11:06:48;;;;;;;9.07;3.38;;;;;;;25.12;44.87;99808.06;4986389;28;20054;-87
2021/07/15 11:09:23;;;;;;;11.38;3.63;;;;;;;25.27;44.29;99803.56;4986389;28;20050;-86
2021/07/15 11:11:51;;;;;;;6.68;3.63;;;;;;;24.73;44.98;99801.88;4986132;28;20046;-84
2021/07/15 11:14:38;;;;;;;8.80;3.83;;;;;;;25.29;43.95;99799.69;4989847;28;20068;-87
2021/07/15 11:17:24;;;;;;;3.28;2.55;;;;;;;25.22;44.59;99805.97;4973708;28;20052;-83
2021/07/15 11:19:58;;;;;;;3.75;2.83;;;;;;;25.07;44.76;99800.59;4985745;28;20557;-83
2021/07/15 11:22:53;;;;;;;12.90;3.30;;;;;;;24.94;44.31;99795.88;4990546;28;20054;-85
2021/07/15 11:25:31;;;;;;;9.25;3.97;;;;;;;25.35;43.92;99787.47;4983480;28;20133;-82
2021/07/15 11:28:02;;;;;;;4.80;3.08;;;;;;;25.52;42.55;99778.28;4990117;28;20046;-86
2021/07/15 11:30:32;;;;;;;8.30;4.32;;;;;;;25.30;42.94;99782.72;4986209;28;20050;-86
2021/07/15 11:33:23;;;;;;;7.43;3.05;;;;;;;25.43;42.67;99779.38;4974892;28;20039;-89
2021/07/15 11:36:00;;;;;;;24.05;3.45;;;;;;;25.74;42.11;99765.03;4980467;28;20089;-83
2021/07/15 11:38:29;;;;;;;23.92;3.53;;;;;;;25.79;42.07;99768.81;4978852;28;20129;-82
2021/07/15 11:41:01;;;;;;;14.57;3.05;;;;;;;25.92;41.46;99773.47;4977443;28;20446;-80
2021/07/15 11:43:34;;;;;;;9.73;3.85;;;;;;;25.95;41.60;99773.13;4980257;28;20371;-79
2021/07/15 11:46:08;;;;;;;19.13;3.25;;;;;;;25.63;41.95;99768.16;4993111;28;20050;-78
2021/07/15 11:48:57;;;;;;;4.40;2.50;;;;;;;25.17;42.68;99771.00;4992297;28;20054;-78
2021/07/15 11:51:30;;;;;;;6.93;3.30;;;;;;;25.23;42.85;99768.44;4989631;28;20053;-76